TimeEDT,TemperatureF,Dew PointF,Humidity,Sea Level PressureIn,VisibilityMPH,Wind Direction,Wind SpeedMPH,Gust SpeedMPH,PrecipitationIn,Events,Conditions,WindDirDegrees,DateUTC
12:51 AM,18.0,6.1,60,30.06,-9999.0,ENE,9.2,-,N/A,,Unknown,60,2013-03-16 04:51:00
1:51 AM,17.1,8.1,68,30.07,-9999.0,East,10.4,-,N/A,,Unknown,80,2013-03-16 05:51:00
2:51 AM,17.1,8.1,68,30.07,-9999.0,East,6.9,-,N/A,,Unknown,100,2013-03-16 06:51:00
3:51 AM,17.1,10.0,74,30.06,-9999.0,East,8.1,-,N/A,,Unknown,90,2013-03-16 07:51:00
4:51 AM,17.1,12.0,81,30.05,-9999.0,East,12.7,20.7,0.01,,Unknown,90,2013-03-16 08:51:00
5:51 AM,16.0,10.9,81,30.05,-9999.0,East,9.2,18.4,0.01,,Unknown,90,2013-03-16 09:51:00
6:51 AM,17.1,10.9,77,30.06,-9999.0,East,9.2,18.4,N/A,,Unknown,80,2013-03-16 10:51:00
7:51 AM,16.0,10.9,81,30.07,-9999.0,East,9.2,18.4,N/A,,Unknown,90,2013-03-16 11:51:00
8:51 AM,16.0,10.0,77,30.08,-9999.0,East,6.9,-,N/A,,Unknown,100,2013-03-16 12:51:00
9:51 AM,16.0,9.0,74,30.08,-9999.0,Variable,3.5,-,N/A,,Unknown,0,2013-03-16 13:51:00
10:51 AM,17.1,9.0,71,30.08,-9999.0,Calm,Calm,-,N/A,,Unknown,0,2013-03-16 14:51:00
11:51 AM,18.0,10.0,71,30.07,-9999.0,Calm,Calm,-,N/A,,Unknown,0,2013-03-16 15:51:00
12:51 PM,17.1,12.0,81,30.06,-9999.0,North,3.5,-,0.01,,Unknown,10,2013-03-16 16:51:00
1:51 PM,19.0,15.1,85,30.04,-9999.0,North,11.5,-,0.01,,Unknown,360,2013-03-16 17:51:00
2:51 PM,19.0,12.0,74,30.04,-9999.0,NNW,13.8,24.2,N/A,,Unknown,330,2013-03-16 18:51:00
3:51 PM,18.0,9.0,68,30.02,-9999.0,NNW,17.3,24.2,N/A,,Unknown,340,2013-03-16 19:51:00
4:51 PM,18.0,12.0,78,30.01,-9999.0,NNW,12.7,19.6,0.01,,Unknown,330,2013-03-16 20:51:00
5:51 PM,19.0,12.9,77,30.00,-9999.0,NNW,13.8,26.5,N/A,,Unknown,340,2013-03-16 21:51:00
6:51 PM,19.9,9.0,62,29.98,-9999.0,Variable,6.9,18.4,0.01,,Unknown,0,2013-03-16 22:51:00
7:51 PM,18.0,15.1,88,29.98,-9999.0,NNW,23.0,32.2,N/A,,Unknown,340,2013-03-16 23:51:00
8:51 PM,19.9,14.0,78,30.00,-9999.0,North,32.2,41.4,N/A,,Unknown,10,2013-03-17 00:51:00
9:51 PM,19.0,8.1,62,30.04,-9999.0,NNE,35.7,43.7,N/A,,Unknown,20,2013-03-17 01:51:00
10:51 PM,17.1,8.1,68,30.11,-9999.0,NNE,31.1,43.7,N/A,,Unknown,20,2013-03-17 02:51:00
11:51 PM,15.1,7.0,70,30.16,-9999.0,NNE,28.8,40.3,N/A,,Unknown,20,2013-03-17 03:51:00